Accueil
METAR-TAF:

METAR-TAF

Aéroports :

Aéroport international de Malacca

Melaka, Malaisie

latitude: 02-16N, longitude: 102-15E, altitude: 11 m

Observation

Le bulletin a été fait il y a 52 minutes, à 01:00 UTC
Vent 5 kt de nord-est, variant entre nord/nord-ouest et sud-est
Température 26°C
Humidité 84%
Pression 1015 hPa
Visibilité 10 km ou plus
Quelques nuages à une hauteur de 2000 ft

METAR: WMKM 220100Z 05005KT 340V140 9999 FEW020 26/23 Q1015

Heure: 09:52 (01:52 UTC)

Prévision

Le bulletin a été fait il y a 2 heures et 52 minutes, à 23:00 UTC
Prévision valable du 22 à 00 UTC au 23 à 00 UTC
Vent 10 kt de nord-est
Visibilité 10 km ou plus
Quelques nuages à une hauteur de 2000 ft
Temporairement
du 22 à 05 UTC au 22 à 10 UTC
Vent 10 kt de nord-est avec des rafales jusqu'à 22 kt

TAF: WMKM 212300Z 2200/2300 04010KT 9999 FEW020 TEMPO 2205/2210 05010G22KT

Observations et prévisions météorologiques de plus de 4000 aéroports (messages METAR et TAF).

Les stations disponibles sont représentées par des disques jaunes et rouges sur la carte.

Passer la souris dessus pour voir le nom de la station.

Cliquer dessus pour voir les observations et prévisions météorologiques.

Pour changer de carte: cliquez sur les boutons verts avec une croix noire pour zoomer, sur le bouton vert avec un tiret pour effectuer un zoom arrière, ou sur les flèches vertes pour les cartes adjacentes.


METAR-TAF: